Yellow Pine, Idaho
Current Conditions -  °F | °C
As of 12:22 PM on Tuesday 21 Oct 2014 (Local Time) from KMYL Reporting Station
Overcast Overcast  
Wind Chill: 42°   Ceiling: 1100
Heat Index: 42°   Visibility: 10mi
Dew Point: 38°   Wind: 0mph
Humidity: 85%   Direction: NA
Pressure: 29.99"   Gusts: NA
Location:  44.96°N, 115.49°W
Report Text: KMYL 211822Z AUTO 00000KT 10SM BKN011 OVC017 06/03 A2999 RMK AO2 RAE16 P0000 T00560033
Loading
Personal Weather Stations






























Interactive Weather Map
Tropical Storm Tracking
New forecast layout! Learn more

10-Day Weather Forecast

Advertisements
Track Severe Weather on mobile